createdAt,value
2022-11-24T00:01:51.369Z,72.30
2022-11-24T00:04:19.258Z,72.40
2022-11-24T00:06:47.108Z,72.50
2022-11-24T00:09:14.938Z,72.90
2022-11-24T00:11:42.782Z,72.90
2022-11-24T00:14:11.238Z,72.60
2022-11-24T00:16:40.671Z,72.20
2022-11-24T00:19:09.564Z,71.90
2022-11-24T00:21:37.676Z,71.70
2022-11-24T00:24:06.202Z,71.80
2022-11-24T00:26:35.349Z,72.20
2022-11-24T00:29:05.088Z,72.10
2022-11-24T00:31:34.326Z,72.00
2022-11-24T00:34:04.438Z,71.90
2022-11-24T00:36:33.242Z,72.00
2022-11-24T00:39:02.064Z,72.30
2022-11-24T00:41:30.151Z,72.50
2022-11-24T00:43:57.995Z,72.30
2022-11-24T00:46:26.380Z,72.20
2022-11-24T00:48:54.718Z,72.30
2022-11-24T00:51:24.766Z,72.40
2022-11-24T00:53:53.107Z,72.50
2022-11-24T00:56:21.076Z,72.90
2022-11-24T00:58:48.945Z,72.70
2022-11-24T01:01:17.869Z,72.40
2022-11-24T01:03:46.672Z,72.10
2022-11-24T01:06:15.519Z,72.00
2022-11-24T01:08:44.730Z,71.90
2022-11-24T01:11:13.526Z,72.40
2022-11-24T01:13:41.675Z,72.40
2022-11-24T01:16:15.318Z,72.20
2022-11-24T01:18:43.530Z,72.20
2022-11-24T01:21:11.551Z,72.30
2022-11-24T01:23:39.413Z,72.20
2022-11-24T01:26:08.907Z,72.60
2022-11-24T01:28:38.570Z,72.70
2022-11-24T01:31:09.969Z,72.40
2022-11-24T01:33:38.031Z,72.00
2022-11-24T01:36:06.866Z,71.90
2022-11-24T01:38:34.722Z,71.80
2022-11-24T01:41:03.845Z,71.90
2022-11-24T01:43:33.136Z,72.20
2022-11-24T01:46:04.587Z,72.20
2022-11-24T01:48:35.664Z,72.00
2022-11-24T01:51:07.412Z,72.00
2022-11-24T01:53:35.435Z,72.20
2022-11-24T01:56:03.511Z,72.20
2022-11-24T01:58:32.929Z,72.50
2022-11-24T02:01:01.227Z,72.50
2022-11-24T02:03:31.361Z,72.40
2022-11-24T02:06:00.508Z,72.40
2022-11-24T02:08:31.375Z,72.40
2022-11-24T02:10:59.270Z,72.70
2022-11-24T02:13:27.348Z,72.90
2022-11-24T02:15:56.605Z,72.70
2022-11-24T02:18:24.693Z,72.20
2022-11-24T02:20:52.614Z,71.90
2022-11-24T02:23:22.380Z,71.70
2022-11-24T02:25:54.393Z,71.80
2022-11-24T02:28:23.857Z,72.20
2022-11-24T02:30:51.986Z,72.10
2022-11-24T02:33:20.806Z,72.10
2022-11-24T02:35:48.751Z,72.00
2022-11-24T02:38:16.649Z,72.00
2022-11-24T02:40:45.821Z,72.20
2022-11-24T02:43:14.779Z,72.50
2022-11-24T02:45:43.993Z,72.50
2022-11-24T02:48:11.875Z,72.40
2022-11-24T02:50:39.773Z,72.30
2022-11-24T02:53:07.654Z,72.40
2022-11-24T02:55:35.541Z,72.50
2022-11-24T02:58:03.435Z,72.90
2022-11-24T03:00:31.389Z,72.90
2022-11-24T03:03:00.662Z,72.60
2022-11-24T03:05:28.737Z,72.30
2022-11-24T03:07:56.648Z,72.10
2022-11-24T03:10:24.560Z,72.10
2022-11-24T03:12:52.459Z,72.50
2022-11-24T03:15:20.316Z,72.50
2022-11-24T03:17:48.197Z,72.40
2022-11-24T03:20:18.760Z,72.30
2022-11-24T03:22:46.639Z,72.30
2022-11-24T03:25:14.557Z,72.30
2022-11-24T03:27:42.436Z,72.50
2022-11-24T03:30:11.889Z,72.80
2022-11-24T03:32:40.048Z,72.70
2022-11-24T03:35:08.676Z,73.00
2022-11-24T03:37:37.888Z,72.10
2022-11-24T03:40:06.759Z,71.90
2022-11-24T03:42:34.644Z,71.90
2022-11-24T03:45:29.787Z,72.40
2022-11-24T03:47:51.604Z,72.30
2022-11-24T03:50:19.599Z,72.20
2022-11-24T03:52:48.825Z,72.20
2022-11-24T03:55:16.740Z,72.30
2022-11-24T03:57:44.625Z,72.30
2022-11-24T04:00:13.382Z,72.70
2022-11-24T04:02:41.470Z,72.80
2022-11-24T04:05:09.831Z,72.60
2022-11-24T04:07:37.832Z,72.20
2022-11-24T04:10:08.082Z,72.10
2022-11-24T04:12:44.210Z,72.00
2022-11-24T04:15:12.470Z,72.00
2022-11-24T04:17:40.360Z,72.40
2022-11-24T04:20:09.440Z,72.30
2022-11-24T04:22:37.371Z,72.20
2022-11-24T04:25:08.200Z,72.30
2022-11-24T04:27:36.705Z,72.30
2022-11-24T04:30:04.824Z,72.50
2022-11-24T04:32:32.874Z,72.90
2022-11-24T04:35:00.800Z,72.70
2022-11-24T04:37:28.873Z,72.50
2022-11-24T04:39:56.778Z,72.50
2022-11-24T04:42:26.020Z,72.50
2022-11-24T04:44:54.030Z,72.70
2022-11-24T04:47:23.050Z,73.00
2022-11-24T04:49:51.135Z,72.90
2022-11-24T04:52:19.484Z,72.60
2022-11-24T04:54:47.518Z,72.60
2022-11-24T04:57:16.444Z,72.70
2022-11-24T04:59:45.656Z,72.70
2022-11-24T05:02:13.584Z,73.10
2022-11-24T05:04:41.563Z,73.10
2022-11-24T05:07:16.585Z,72.80
2022-11-24T05:10:04.241Z,72.20
2022-11-24T05:12:32.274Z,71.90
2022-11-24T05:15:01.881Z,71.60
2022-11-24T05:17:30.376Z,72.00
2022-11-24T05:19:58.365Z,72.10
2022-11-24T05:22:26.892Z,71.90
2022-11-24T05:24:54.922Z,71.90
2022-11-24T05:27:22.846Z,72.00
2022-11-24T05:29:50.751Z,72.00
2022-11-24T05:32:20.208Z,72.30
2022-11-24T05:34:48.211Z,72.70
2022-11-24T05:37:16.096Z,72.40
2022-11-24T05:39:43.993Z,72.40
2022-11-24T05:42:29.555Z,72.40
2022-11-24T05:44:57.912Z,72.30
2022-11-24T05:47:27.333Z,72.50
2022-11-24T05:49:55.219Z,72.90
2022-11-24T05:52:23.151Z,72.70
2022-11-24T05:54:51.035Z,72.30
2022-11-24T05:57:18.898Z,71.90
2022-11-24T05:59:46.811Z,71.60
2022-11-24T06:02:14.770Z,71.60
2022-11-24T06:04:44.121Z,72.20
2022-11-24T06:07:12.599Z,72.00
2022-11-24T06:09:40.917Z,71.90
2022-11-24T06:12:09.002Z,71.90
2022-11-24T06:14:37.201Z,71.90
2022-11-24T06:17:05.499Z,72.10
2022-11-24T06:19:35.493Z,72.60
2022-11-24T06:22:07.919Z,72.60
2022-11-24T06:24:36.198Z,72.30
2022-11-24T06:27:04.378Z,72.30
2022-11-24T06:29:32.273Z,72.30
2022-11-24T06:32:00.277Z,72.40
2022-11-24T06:34:28.319Z,72.60
2022-11-24T06:36:56.231Z,72.90
2022-11-24T06:39:25.798Z,72.70
2022-11-24T06:41:53.811Z,72.20
2022-11-24T06:44:22.584Z,71.90
2022-11-24T06:46:50.485Z,71.60
2022-11-24T06:49:18.394Z,71.80
2022-11-24T06:51:46.285Z,72.20
2022-11-24T06:54:16.124Z,72.00
2022-11-24T06:56:45.371Z,71.90
2022-11-24T06:59:17.336Z,71.80
2022-11-24T07:01:47.727Z,72.00
2022-11-24T07:04:15.930Z,72.20
2022-11-24T07:06:44.021Z,72.60
2022-11-24T07:09:12.404Z,73.10
2022-11-24T07:11:40.442Z,72.30
2022-11-24T07:14:10.030Z,72.40
2022-11-24T07:16:38.018Z,72.40
2022-11-24T07:19:06.149Z,72.40
2022-11-24T07:21:34.040Z,72.00
2022-11-24T07:24:01.957Z,71.80
2022-11-24T07:26:29.831Z,71.80
2022-11-24T07:28:57.742Z,71.90
2022-11-24T07:31:27.103Z,71.90
2022-11-24T07:33:55.763Z,72.20
2022-11-24T07:36:23.841Z,72.60
2022-11-24T07:38:51.815Z,72.50
2022-11-24T07:41:20.349Z,72.40
2022-11-24T07:43:48.354Z,71.90
2022-11-24T07:46:17.324Z,71.60
2022-11-24T07:48:46.637Z,71.20
2022-11-24T07:51:15.533Z,71.50
2022-11-24T07:53:43.464Z,71.80
2022-11-24T07:56:12.534Z,71.60
2022-11-24T07:58:40.451Z,71.50
2022-11-24T08:01:12.860Z,71.60
2022-11-24T08:03:49.814Z,71.80
2022-11-24T08:06:30.027Z,71.90
2022-11-24T08:09:04.424Z,72.40
2022-11-24T08:11:32.915Z,72.10
2022-11-24T08:14:00.991Z,72.10
2022-11-24T08:16:29.013Z,72.10
2022-11-24T08:19:00.851Z,72.20
2022-11-24T08:21:28.870Z,72.40
2022-11-24T08:23:56.929Z,72.80
2022-11-24T08:26:25.489Z,72.50
2022-11-24T08:28:55.038Z,72.40
2022-11-24T08:31:23.104Z,72.40
2022-11-24T08:33:51.015Z,72.40
2022-11-24T08:36:20.484Z,72.50
2022-11-24T08:38:49.427Z,73.00
2022-11-24T08:41:17.730Z,73.10
2022-11-24T08:43:45.635Z,72.80
2022-11-24T08:46:16.875Z,72.30
2022-11-24T08:48:45.154Z,72.00
2022-11-24T08:51:14.195Z,71.80
2022-11-24T08:53:43.752Z,72.20
2022-11-24T08:56:12.140Z,72.20
2022-11-24T08:58:40.160Z,72.10
2022-11-24T09:01:09.034Z,72.00
2022-11-24T09:03:37.568Z,72.10
2022-11-24T09:06:05.801Z,72.30
2022-11-24T09:08:34.044Z,72.60
2022-11-24T09:11:03.859Z,72.90
2022-11-24T09:13:31.924Z,72.70
2022-11-24T09:16:03.827Z,72.50
2022-11-24T09:18:31.761Z,72.50
2022-11-24T09:21:07.915Z,72.70
2022-11-24T09:23:35.961Z,73.10
2022-11-24T09:26:06.528Z,73.20
2022-11-24T09:28:34.597Z,72.80
2022-11-24T09:31:03.053Z,72.50
2022-11-24T09:33:31.397Z,72.20
2022-11-24T09:35:59.480Z,72.20
2022-11-24T09:38:27.605Z,72.40
2022-11-24T09:40:55.834Z,72.60
2022-11-24T09:43:27.517Z,72.40
2022-11-24T09:46:05.577Z,72.30
2022-11-24T09:48:35.976Z,72.40
2022-11-24T09:51:04.357Z,72.40
2022-11-24T09:53:33.454Z,72.70
2022-11-24T09:56:03.859Z,73.00
2022-11-24T09:58:36.777Z,72.80
2022-11-24T10:01:06.627Z,72.70
2022-11-24T10:03:37.138Z,72.70
2022-11-24T10:06:11.172Z,72.90
2022-11-24T10:09:07.376Z,73.00
2022-11-24T10:11:37.980Z,73.30
2022-11-24T10:14:23.639Z,73.00
2022-11-24T10:16:53.578Z,72.50
2022-11-24T10:19:36.327Z,72.20
2022-11-24T10:22:13.371Z,72.10
2022-11-24T10:25:04.658Z,72.50
2022-11-24T10:27:35.780Z,72.50
2022-11-24T10:30:08.999Z,72.30
2022-11-24T10:32:37.831Z,72.30
2022-11-24T10:35:15.572Z,72.40
2022-11-24T10:37:47.073Z,72.50
2022-11-24T10:40:56.113Z,73.00
2022-11-24T10:43:11.003Z,72.90
2022-11-24T10:45:40.624Z,72.70
2022-11-24T10:48:12.355Z,73.40
2022-11-24T10:50:41.864Z,72.80
2022-11-24T10:53:15.653Z,72.80
2022-11-24T10:56:04.439Z,73.20
2022-11-24T10:58:37.762Z,73.20
2022-11-24T11:01:24.756Z,72.60
2022-11-24T11:03:53.387Z,72.30
2022-11-24T11:06:23.049Z,72.10
2022-11-24T11:08:50.934Z,72.30
2022-11-24T11:11:23.672Z,72.70
2022-11-24T11:14:01.551Z,72.50
2022-11-24T11:16:37.132Z,72.40
2022-11-24T11:19:20.161Z,72.50
2022-11-24T11:22:00.711Z,72.40
2022-11-24T11:24:28.604Z,72.70
2022-11-24T11:27:00.946Z,72.70
2022-11-24T11:35:12.375Z,72.90
2022-11-24T11:37:40.266Z,73.00
2022-11-24T11:40:15.686Z,73.30
2022-11-24T11:43:01.931Z,73.50
2022-11-24T11:45:34.719Z,73.20
2022-11-24T11:48:15.091Z,72.60
2022-11-24T11:51:15.118Z,72.10
2022-11-24T11:53:36.876Z,71.60
2022-11-24T11:56:09.994Z,71.00
2022-11-24T11:59:11.588Z,70.00
2022-11-24T12:01:53.371Z,69.60
2022-11-24T12:04:25.712Z,69.20
2022-11-24T12:07:12.956Z,68.90
2022-11-24T12:09:48.694Z,68.60
2022-11-24T12:12:34.469Z,68.50
2022-11-24T12:15:10.516Z,68.70
2022-11-24T12:17:41.033Z,69.00
2022-11-24T12:20:32.452Z,69.40
2022-11-24T12:23:03.554Z,70.20
2022-11-24T12:25:34.802Z,70.40
2022-11-24T12:28:14.468Z,70.50
2022-11-24T12:30:44.422Z,70.70
2022-11-24T12:33:25.296Z,71.00
2022-11-24T12:36:03.481Z,71.80
2022-11-24T12:38:38.669Z,71.90
2022-11-24T12:44:11.229Z,71.70
2022-11-24T12:46:41.642Z,71.80
2022-11-24T12:49:13.798Z,72.20
2022-11-24T12:51:43.953Z,72.70
2022-11-24T12:54:13.486Z,73.10
2022-11-24T12:56:43.727Z,72.10
2022-11-24T12:59:21.316Z,71.70
2022-11-24T13:01:51.884Z,71.40
2022-11-24T13:04:26.969Z,71.40
2022-11-24T13:06:58.452Z,71.80
2022-11-24T13:09:26.336Z,71.70
2022-11-24T13:11:56.738Z,71.60
2022-11-24T13:14:30.568Z,71.70
2022-11-24T13:17:28.789Z,71.80
2022-11-24T13:19:47.288Z,72.20
2022-11-24T13:22:17.901Z,72.50
2022-11-24T13:24:45.905Z,72.30
2022-11-24T13:27:27.721Z,72.20
2022-11-24T13:29:55.727Z,72.20
2022-11-24T13:32:58.499Z,72.30
2022-11-24T13:35:26.412Z,73.00
2022-11-24T13:37:55.627Z,72.90
2022-11-24T13:40:59.823Z,72.50
2022-11-24T13:43:31.494Z,72.20
2022-11-24T13:45:59.457Z,71.90
2022-11-24T13:49:01.166Z,72.20
2022-11-24T13:51:29.267Z,72.40
2022-11-24T13:53:59.929Z,72.10
2022-11-24T13:56:28.082Z,72.00
2022-11-24T13:58:56.959Z,72.20
2022-11-24T14:01:25.264Z,72.90
2022-11-24T14:04:35.745Z,72.80
2022-11-24T14:07:08.359Z,72.70
2022-11-24T14:09:41.352Z,72.50
2022-11-24T14:12:14.199Z,72.50
2022-11-24T14:14:42.194Z,72.60
2022-11-24T14:17:19.236Z,72.60
2022-11-24T14:19:48.368Z,73.10
2022-11-24T14:22:21.037Z,73.10
2022-11-24T14:24:54.606Z,72.60
2022-11-24T14:27:27.337Z,72.30
2022-11-24T14:29:56.295Z,72.10
2022-11-24T14:32:24.401Z,72.00
2022-11-24T14:34:54.851Z,72.50
2022-11-24T14:37:22.801Z,72.30
2022-11-24T14:39:50.684Z,72.20
2022-11-24T14:42:21.489Z,72.20
2022-11-24T14:44:54.128Z,72.20
2022-11-24T14:47:30.446Z,72.40
2022-11-24T14:50:06.599Z,72.90
2022-11-24T14:52:34.583Z,72.60
2022-11-24T14:55:17.615Z,72.70
2022-11-24T14:57:50.928Z,72.40
2022-11-24T15:00:20.367Z,72.10
2022-11-24T15:02:50.002Z,72.40
2022-11-24T15:05:18.112Z,72.70
2022-11-24T15:07:46.731Z,72.60
2022-11-24T15:10:22.729Z,72.20
2022-11-24T15:12:54.629Z,72.00
2022-11-24T15:15:24.263Z,71.80
2022-11-24T15:17:53.588Z,71.80
2022-11-24T15:20:23.643Z,72.30
2022-11-24T15:22:52.372Z,73.10
2022-11-24T15:25:28.187Z,72.10
2022-11-24T15:27:57.816Z,71.90
2022-11-24T15:30:25.745Z,72.10
2022-11-24T15:32:53.812Z,72.30
2022-11-24T15:35:22.690Z,72.90
2022-11-24T15:37:50.704Z,72.80
2022-11-24T15:40:18.718Z,72.50
2022-11-24T15:42:51.782Z,72.50
2022-11-24T15:45:21.395Z,72.40
2022-11-24T15:47:49.707Z,72.60
2022-11-24T15:50:18.088Z,73.00
2022-11-24T15:52:46.093Z,73.10
2022-11-24T15:55:17.243Z,72.90
2022-11-24T15:57:45.169Z,72.40
2022-11-24T16:00:17.814Z,72.20
2022-11-24T16:02:47.084Z,71.90
2022-11-24T16:05:15.240Z,72.30
2022-11-24T16:07:43.388Z,72.50
2022-11-24T16:10:17.589Z,72.40
2022-11-24T16:12:45.485Z,72.20
2022-11-24T16:15:13.435Z,72.30
2022-11-24T16:17:41.327Z,72.40
2022-11-24T16:20:12.004Z,72.90
2022-11-24T16:22:39.913Z,72.90
2022-11-24T16:25:08.325Z,72.70
2022-11-24T16:27:36.207Z,72.70
2022-11-24T16:30:04.384Z,72.50
2022-11-24T16:32:32.280Z,72.50
2022-11-24T16:35:00.152Z,72.80
2022-11-24T16:37:29.369Z,73.20
2022-11-24T16:39:58.325Z,73.00
2022-11-24T16:42:26.312Z,72.60
2022-11-24T16:44:54.228Z,72.20
2022-11-24T16:47:22.217Z,72.00
2022-11-24T16:49:50.113Z,72.40
2022-11-24T16:52:18.166Z,72.50
2022-11-24T16:54:47.962Z,72.30
2022-11-24T16:57:15.858Z,72.10
2022-11-24T16:59:45.849Z,72.20
2022-11-24T17:02:13.904Z,72.20
2022-11-24T17:04:41.939Z,72.50
2022-11-24T17:07:09.975Z,72.70
2022-11-24T17:09:40.779Z,72.80
2022-11-24T17:12:10.220Z,72.60
2022-11-24T17:14:38.160Z,72.50
2022-11-24T17:17:06.100Z,72.50
2022-11-24T17:19:33.989Z,72.80
2022-11-24T17:22:01.852Z,72.80
2022-11-24T17:24:29.864Z,72.50
2022-11-24T17:26:57.923Z,72.20
2022-11-24T17:29:27.639Z,72.00
2022-11-24T17:31:55.714Z,72.00
2022-11-24T17:34:23.641Z,72.10
2022-11-24T17:36:51.597Z,72.10
2022-11-24T17:39:23.358Z,72.20
2022-11-24T17:41:53.038Z,72.30
2022-11-24T17:44:21.088Z,72.10
2022-11-24T17:46:50.345Z,72.30
2022-11-24T17:49:18.434Z,72.40
2022-11-24T17:51:50.362Z,72.60
2022-11-24T17:57:06.479Z,72.70
2022-11-24T17:59:34.381Z,72.60
2022-11-24T18:02:03.669Z,72.70
2022-11-24T18:04:31.625Z,72.90
2022-11-24T18:06:59.677Z,72.90
2022-11-24T18:09:27.576Z,72.70
2022-11-24T18:11:55.502Z,72.50
2022-11-24T18:14:23.383Z,72.50
2022-11-24T18:16:51.553Z,72.40
2022-11-24T18:19:20.867Z,72.40
2022-11-24T18:21:48.964Z,72.60
2022-11-24T18:24:21.115Z,72.60
2022-11-24T18:26:51.925Z,72.60
2022-11-24T18:29:19.808Z,72.50
2022-11-24T18:31:47.764Z,72.60
2022-11-24T18:34:15.746Z,72.70
2022-11-24T18:36:47.393Z,73.00
2022-11-24T18:39:17.857Z,72.90
2022-11-24T18:41:45.779Z,72.70
2022-11-24T18:44:13.767Z,72.30
2022-11-24T18:46:41.728Z,72.20
2022-11-24T18:49:09.831Z,72.00
2022-11-24T18:51:37.758Z,72.40
2022-11-24T18:54:07.239Z,72.40
2022-11-24T18:56:35.132Z,72.30
2022-11-24T18:59:03.033Z,72.30
2022-11-24T19:01:32.102Z,72.20
2022-11-24T19:04:00.771Z,72.40
2022-11-24T19:06:32.100Z,72.70
2022-11-24T19:09:00.900Z,72.90
2022-11-24T19:11:32.315Z,72.60
2022-11-24T19:14:00.209Z,72.40
2022-11-24T19:16:28.156Z,72.00
2022-11-24T19:18:57.224Z,72.20
2022-11-24T19:21:25.233Z,72.20
2022-11-24T19:23:53.222Z,72.50
2022-11-24T19:26:21.122Z,72.40
2022-11-24T19:28:50.482Z,72.40
2022-11-24T19:31:19.211Z,72.30
2022-11-24T19:33:47.439Z,72.40
2022-11-24T19:36:16.319Z,72.50
2022-11-24T19:38:44.500Z,72.90
2022-11-24T19:41:13.020Z,72.80
2022-11-24T19:43:41.100Z,72.60
2022-11-24T19:46:11.377Z,72.50
2022-11-24T19:48:40.707Z,72.60
2022-11-24T19:51:09.311Z,72.80
2022-11-24T19:53:37.881Z,73.10
2022-11-24T19:56:06.337Z,72.90
2022-11-24T19:58:34.337Z,72.40
2022-11-24T20:01:07.477Z,72.20
2022-11-24T20:03:36.848Z,71.90
2022-11-24T20:06:05.035Z,72.00
2022-11-24T20:08:34.159Z,72.10
2022-11-24T20:11:05.571Z,72.00
2022-11-24T20:13:34.580Z,72.00
2022-11-24T20:16:05.477Z,72.00
2022-11-24T20:18:37.544Z,72.20
2022-11-24T20:21:11.436Z,72.40
2022-11-24T20:23:39.443Z,72.90
2022-11-24T20:26:08.176Z,72.80
2022-11-24T20:28:36.273Z,72.70
2022-11-24T20:31:04.330Z,72.60
2022-11-24T20:33:32.208Z,72.60
2022-11-24T20:36:04.689Z,72.80
2022-11-24T20:38:34.402Z,73.30
2022-11-24T20:41:08.736Z,73.30
2022-11-24T20:43:37.434Z,73.00
2022-11-24T20:46:05.704Z,72.60
2022-11-24T20:48:34.309Z,72.40
2022-11-24T20:51:04.410Z,72.30
2022-11-24T20:53:33.708Z,72.80
2022-11-24T20:56:06.084Z,72.70
2022-11-24T20:58:34.993Z,72.50
2022-11-24T21:01:07.037Z,72.40
2022-11-24T21:03:38.419Z,72.50
2022-11-24T21:06:10.593Z,72.60
2022-11-24T21:08:40.402Z,73.30
2022-11-24T21:11:09.140Z,73.10
2022-11-24T21:13:37.325Z,73.00
2022-11-24T21:16:12.672Z,72.90
2022-11-24T21:18:40.645Z,72.90
2022-11-24T21:21:08.545Z,73.00
2022-11-24T21:23:36.468Z,73.60
2022-11-24T21:26:11.513Z,73.50
2022-11-24T21:28:42.976Z,73.10
2022-11-24T21:31:12.402Z,72.70
2022-11-24T21:33:44.823Z,72.50
2022-11-24T21:36:12.773Z,72.40
2022-11-24T21:38:40.696Z,73.00
2022-11-24T21:41:10.265Z,72.80
2022-11-24T21:43:38.543Z,72.60
2022-11-24T21:46:07.945Z,72.50
2022-11-24T21:48:36.520Z,72.50
2022-11-24T21:51:05.874Z,72.70
2022-11-24T21:53:34.880Z,73.10
2022-11-24T21:56:05.078Z,73.00
2022-11-24T21:58:34.353Z,72.90
2022-11-24T22:01:02.893Z,72.70
2022-11-24T22:03:31.023Z,72.80
2022-11-24T22:05:59.647Z,72.90
2022-11-24T22:08:28.775Z,73.30
2022-11-24T22:11:01.366Z,73.30
2022-11-24T22:13:29.257Z,73.10
2022-11-24T22:16:02.990Z,72.70
2022-11-24T22:18:32.977Z,72.40
2022-11-24T22:21:02.636Z,72.20
2022-11-24T22:23:30.964Z,72.40
2022-11-24T22:26:03.746Z,72.60
2022-11-24T22:28:33.110Z,72.50
2022-11-24T22:31:05.822Z,72.40
2022-11-24T22:33:33.795Z,72.30
2022-11-24T22:36:01.933Z,72.50
2022-11-24T22:38:30.048Z,72.80
2022-11-24T22:41:02.221Z,73.80
2022-11-24T22:43:32.121Z,72.80
2022-11-24T22:46:05.196Z,72.70
2022-11-24T22:48:33.261Z,72.70
2022-11-24T22:51:05.222Z,72.90
2022-11-24T22:53:33.164Z,73.00
2022-11-24T22:56:04.386Z,73.30
2022-11-24T22:58:32.872Z,73.10
2022-11-24T23:01:06.354Z,72.90
2022-11-24T23:03:34.722Z,72.90
2022-11-24T23:06:02.698Z,72.90
2022-11-24T23:08:31.049Z,73.00
2022-11-24T23:11:02.381Z,73.40
2022-11-24T23:13:30.343Z,73.20
2022-11-24T23:16:02.434Z,72.90
2022-11-24T23:18:31.798Z,72.40
2022-11-24T23:21:05.594Z,72.30
2022-11-24T23:23:33.603Z,72.10
2022-11-24T23:26:01.952Z,72.40
2022-11-24T23:28:29.918Z,72.60
2022-11-24T23:31:01.586Z,73.10
2022-11-24T23:33:30.877Z,72.30
2022-11-24T23:36:01.062Z,72.30
2022-11-24T23:38:30.161Z,72.50
2022-11-24T23:40:58.086Z,72.70
2022-11-24T23:43:25.992Z,73.00
2022-11-24T23:45:54.318Z,72.70
2022-11-24T23:48:22.265Z,72.70
2022-11-24T23:50:51.541Z,72.70
2022-11-24T23:53:19.429Z,72.80
2022-11-24T23:55:54.004Z,73.10
2022-11-24T23:58:21.997Z,73.20
